createdAt,value
2023-02-14T05:00:43.527Z,99.99
2023-02-14T05:01:43.372Z,99.99
2023-02-14T05:02:43.363Z,99.99
2023-02-14T05:03:43.407Z,99.99
2023-02-14T05:04:43.343Z,99.99
2023-02-14T05:05:43.341Z,99.99
2023-02-14T05:06:43.335Z,99.99
2023-02-14T05:07:43.332Z,99.99
2023-02-14T05:08:43.298Z,99.99
2023-02-14T05:09:43.290Z,99.99
2023-02-14T05:10:43.290Z,99.99
2023-02-14T05:11:43.243Z,99.99
2023-02-14T05:12:43.243Z,99.99
2023-02-14T05:13:43.198Z,99.99
2023-02-14T05:14:43.279Z,99.99
2023-02-14T05:15:43.196Z,99.99
2023-02-14T05:16:43.280Z,99.99
2023-02-14T05:17:43.167Z,99.99
2023-02-14T05:18:43.159Z,99.99
2023-02-14T05:19:43.197Z,99.99
2023-02-14T05:20:43.207Z,99.99
2023-02-14T05:21:43.107Z,99.99
2023-02-14T05:22:43.147Z,99.99
2023-02-14T05:23:43.126Z,99.99
2023-02-14T05:24:43.124Z,99.99
2023-02-14T05:25:43.071Z,99.99
2023-02-14T05:26:43.082Z,99.99
2023-02-14T05:27:43.041Z,99.99
2023-02-14T05:28:43.061Z,99.99
2023-02-14T05:29:43.070Z,99.99
2023-02-14T05:30:43.107Z,99.99
2023-02-14T05:31:43.165Z,99.99
2023-02-14T05:32:43.020Z,99.99
2023-02-14T05:33:42.970Z,99.99
2023-02-14T05:34:43.198Z,99.99
2023-02-14T05:35:42.943Z,99.99
2023-02-14T05:36:42.968Z,99.99
2023-02-14T05:37:42.908Z,99.99
2023-02-14T05:38:42.920Z,99.99
2023-02-14T05:39:42.918Z,99.99
2023-02-14T05:40:42.911Z,99.99
2023-02-14T05:41:42.872Z,99.99
2023-02-14T05:42:42.876Z,99.99
2023-02-14T05:43:42.841Z,99.99
2023-02-14T05:44:42.884Z,99.99
2023-02-14T05:45:42.849Z,99.99
2023-02-14T05:46:42.831Z,99.99
2023-02-14T05:47:42.843Z,99.99
2023-02-14T05:48:42.805Z,99.99
2023-02-14T05:49:43.024Z,99.99
2023-02-14T05:50:42.794Z,99.99
2023-02-14T05:51:42.785Z,99.99
2023-02-14T05:52:42.769Z,99.99
2023-02-14T05:53:42.726Z,99.99
2023-02-14T05:54:42.736Z,99.99
2023-02-14T05:55:42.786Z,99.99
2023-02-14T05:56:42.714Z,99.99
2023-02-14T05:57:42.672Z,99.99
2023-02-14T05:58:42.690Z,99.99
2023-02-14T05:59:42.675Z,99.99
2023-02-14T06:00:42.666Z,99.99
2023-02-14T06:01:42.728Z,99.99
2023-02-14T06:02:42.651Z,99.99
2023-02-14T06:03:42.610Z,99.99
2023-02-14T06:04:42.738Z,99.99
2023-02-14T06:05:42.584Z,99.99
2023-02-14T06:06:42.604Z,99.99
2023-02-14T06:07:42.772Z,99.99
2023-02-14T06:08:42.572Z,99.99
2023-02-14T06:09:42.548Z,99.99
2023-02-14T06:10:42.532Z,99.99
2023-02-14T06:11:42.526Z,99.99
2023-02-14T06:12:42.520Z,99.99
2023-02-14T06:13:42.678Z,99.99
2023-02-14T06:14:42.500Z,99.99
2023-02-14T06:15:42.483Z,99.99
2023-02-14T06:16:42.539Z,99.99
2023-02-14T06:17:42.448Z,99.99
2023-02-14T06:18:42.457Z,99.99
2023-02-14T06:19:42.691Z,99.99
2023-02-14T06:20:42.426Z,99.99
2023-02-14T06:21:42.389Z,99.99
2023-02-14T06:22:42.465Z,99.99
2023-02-14T06:23:42.366Z,99.99
2023-02-14T06:24:42.402Z,99.99
2023-02-14T06:25:42.448Z,99.99
2023-02-14T06:26:42.338Z,99.99
2023-02-14T06:27:42.339Z,99.99
2023-02-14T06:28:42.305Z,99.99
2023-02-14T06:29:42.319Z,99.99
2023-02-14T06:30:42.525Z,99.99
2023-02-14T06:31:42.454Z,99.99
2023-02-14T06:32:42.282Z,99.99
2023-02-14T06:33:49.309Z,99.99
2023-02-14T06:34:42.242Z,99.99
2023-02-14T06:35:45.053Z,99.99
2023-02-14T06:36:42.198Z,99.99
2023-02-14T06:37:42.222Z,99.99
2023-02-14T06:38:42.180Z,99.99
2023-02-14T06:39:42.185Z,99.99
2023-02-14T06:40:42.874Z,99.99
2023-02-14T06:41:42.211Z,99.99
2023-02-14T06:42:42.134Z,99.99
2023-02-14T06:43:42.166Z,99.99
2023-02-14T06:44:42.111Z,99.99
2023-02-14T06:45:42.110Z,99.99
2023-02-14T06:46:42.212Z,99.99
2023-02-14T06:47:42.089Z,99.99
2023-02-14T06:48:42.068Z,99.99
2023-02-14T06:49:42.086Z,99.99
2023-02-14T06:50:42.186Z,99.99
2023-02-14T06:51:42.069Z,99.99
2023-02-14T06:52:42.096Z,99.99
2023-02-14T06:53:42.011Z,99.99
2023-02-14T06:54:41.991Z,99.99
2023-02-14T06:55:43.823Z,99.99
2023-02-14T06:56:41.995Z,99.99
2023-02-14T06:57:41.979Z,99.99
2023-02-14T06:58:42.326Z,99.99
2023-02-14T06:59:41.944Z,99.99
2023-02-14T07:00:42.828Z,99.99
2023-02-14T07:01:41.972Z,99.99
2023-02-14T07:02:41.985Z,99.99
2023-02-14T07:03:41.893Z,99.99
2023-02-14T07:04:41.855Z,99.99
2023-02-14T07:05:41.871Z,99.99
2023-02-14T07:06:41.889Z,99.99
2023-02-14T07:07:41.866Z,99.99
2023-02-14T07:08:41.824Z,99.99
2023-02-14T07:09:41.831Z,99.99
2023-02-14T07:10:41.788Z,99.99
2023-02-14T07:11:41.852Z,99.99
2023-02-14T07:12:41.762Z,99.99
2023-02-14T07:13:41.769Z,99.99
2023-02-14T07:14:41.740Z,99.99
2023-02-14T07:15:41.755Z,99.99
2023-02-14T07:16:41.749Z,99.99
2023-02-14T07:17:41.771Z,99.99
2023-02-14T07:18:41.710Z,99.99
2023-02-14T07:19:41.688Z,99.99
2023-02-14T07:20:41.657Z,99.99
2023-02-14T07:21:41.717Z,99.99
2023-02-14T07:22:41.639Z,99.99
2023-02-14T07:23:41.645Z,99.99
2023-02-14T07:24:41.602Z,99.99
2023-02-14T07:25:41.650Z,99.99
2023-02-14T07:26:41.578Z,99.99
2023-02-14T07:27:41.647Z,99.99
2023-02-14T07:28:43.281Z,99.99
2023-02-14T07:29:41.583Z,99.99
2023-02-14T07:30:41.575Z,99.99
2023-02-14T07:31:41.654Z,99.99
2023-02-14T07:32:41.523Z,99.99
2023-02-14T07:33:41.725Z,99.99
2023-02-14T07:34:41.488Z,99.99
2023-02-14T07:35:41.481Z,99.99
2023-02-14T07:36:41.448Z,99.99
2023-02-14T07:37:41.486Z,99.99
2023-02-14T07:38:41.468Z,99.99
2023-02-14T07:39:44.738Z,99.99
2023-02-14T07:40:41.399Z,99.99
2023-02-14T07:41:41.423Z,99.99
2023-02-14T07:42:41.425Z,99.99
2023-02-14T07:43:41.374Z,99.99
2023-02-14T07:44:41.345Z,99.99
2023-02-14T07:45:42.085Z,99.99
2023-02-14T07:46:41.362Z,99.99
2023-02-14T07:47:41.336Z,99.99
2023-02-14T07:48:41.303Z,99.99
2023-02-14T07:49:41.326Z,99.99
2023-02-14T07:50:41.274Z,99.99
2023-02-14T07:51:41.345Z,99.99
2023-02-14T07:52:41.261Z,99.99
2023-02-14T07:53:41.267Z,99.99
2023-02-14T07:54:41.236Z,99.99
2023-02-14T07:55:41.241Z,99.99
2023-02-14T07:56:41.427Z,99.99
2023-02-14T07:57:41.232Z,99.99
2023-02-14T07:58:41.180Z,99.99
2023-02-14T07:59:41.191Z,99.90
2023-02-14T08:00:41.231Z,96.88
2023-02-14T08:01:41.222Z,97.75
2023-02-14T08:02:41.317Z,99.11
2023-02-14T08:03:41.128Z,99.90
2023-02-14T08:04:41.125Z,99.17
2023-02-14T08:05:41.128Z,96.71
2023-02-14T08:06:41.118Z,96.82
2023-02-14T08:07:41.087Z,97.49
2023-02-14T08:08:41.224Z,99.83
2023-02-14T08:09:41.120Z,99.99
2023-02-14T08:10:41.046Z,99.99
2023-02-14T08:11:41.147Z,99.99
2023-02-14T08:12:41.049Z,99.99
2023-02-14T08:13:41.008Z,99.99
2023-02-14T08:14:41.035Z,99.99
2023-02-14T08:15:41.162Z,99.99
2023-02-14T08:16:40.992Z,99.99
2023-02-14T08:17:40.944Z,99.99
2023-02-14T08:18:40.961Z,99.99
2023-02-14T08:19:40.943Z,99.99
2023-02-14T08:20:41.079Z,99.99
2023-02-14T08:21:40.902Z,99.99
2023-02-14T08:22:40.864Z,99.99
2023-02-14T08:23:40.874Z,99.99
2023-02-14T08:24:40.841Z,99.99
2023-02-14T08:25:40.885Z,99.99
2023-02-14T08:26:40.814Z,99.99
2023-02-14T08:27:40.816Z,99.99
2023-02-14T08:28:40.795Z,99.99
2023-02-14T08:29:40.796Z,99.99
2023-02-14T08:30:40.808Z,99.99
2023-02-14T08:31:40.800Z,99.99
2023-02-14T08:32:40.859Z,99.99
2023-02-14T08:33:40.749Z,99.99
2023-02-14T08:34:40.701Z,99.99
2023-02-14T08:35:40.767Z,99.99
2023-02-14T08:36:40.688Z,99.99
2023-02-14T08:37:40.711Z,99.99
2023-02-14T08:38:40.664Z,99.99
2023-02-14T08:39:40.683Z,99.99
2023-02-14T08:40:40.751Z,99.99
2023-02-14T08:41:40.648Z,99.99
2023-02-14T08:42:40.617Z,99.99
2023-02-14T08:43:40.631Z,99.99
2023-02-14T08:44:40.576Z,99.99
2023-02-14T08:45:40.682Z,99.99
2023-02-14T08:46:40.595Z,99.99
2023-02-14T08:47:40.571Z,99.99
2023-02-14T08:48:40.549Z,99.99
2023-02-14T08:49:40.546Z,99.99
2023-02-14T08:50:40.539Z,99.99
2023-02-14T08:51:40.661Z,99.99
2023-02-14T08:52:40.499Z,99.99
2023-02-14T08:53:40.509Z,99.99
2023-02-14T08:54:40.447Z,99.99
2023-02-14T08:55:40.571Z,99.99
2023-02-14T08:56:40.422Z,99.99
2023-02-14T08:57:41.027Z,99.99
2023-02-14T08:58:40.406Z,99.99
2023-02-14T08:59:40.423Z,99.99
2023-02-14T09:00:40.425Z,99.99
2023-02-14T09:01:40.403Z,99.99
2023-02-14T09:02:40.336Z,99.99
2023-02-14T09:03:40.468Z,99.99
2023-02-14T09:04:40.386Z,99.99
2023-02-14T09:05:40.370Z,99.99
2023-02-14T09:06:40.280Z,99.99
2023-02-14T09:07:40.309Z,99.99
2023-02-14T09:08:40.302Z,99.99
2023-02-14T09:09:40.290Z,99.99
2023-02-14T09:10:40.260Z,99.99
2023-02-14T09:11:40.306Z,99.99
2023-02-14T09:12:40.214Z,99.99
2023-02-14T09:13:40.266Z,99.99
2023-02-14T09:14:40.170Z,99.99
2023-02-14T09:15:40.216Z,99.99
2023-02-14T09:16:40.206Z,99.99
2023-02-14T09:17:40.205Z,99.99
2023-02-14T09:18:40.190Z,99.99
2023-02-14T09:19:40.135Z,99.99
2023-02-14T09:20:40.119Z,99.99
2023-02-14T09:21:40.143Z,99.99
2023-02-14T09:22:40.197Z,99.99
2023-02-14T09:23:40.187Z,99.99
2023-02-14T09:24:40.066Z,99.99
2023-02-14T09:25:40.065Z,99.99
2023-02-14T09:26:40.026Z,99.99
2023-02-14T09:27:40.033Z,99.99
2023-02-14T09:28:40.092Z,99.99
2023-02-14T09:29:40.034Z,99.99
2023-02-14T09:30:39.979Z,99.99
2023-02-14T09:31:40.171Z,99.99
2023-02-14T09:32:39.976Z,99.99
2023-02-14T09:33:39.980Z,99.99
2023-02-14T09:34:40.019Z,99.99
2023-02-14T09:35:39.999Z,99.99
2023-02-14T09:36:39.921Z,99.99
2023-02-14T09:37:39.934Z,99.99
2023-02-14T09:38:39.875Z,99.99
2023-02-14T09:39:39.913Z,99.99
2023-02-14T09:42:18.809Z,99.99
2023-02-14T09:42:49.931Z,99.99
2023-02-14T09:43:50.682Z,99.99
2023-02-14T09:44:49.909Z,99.99
2023-02-14T09:45:49.884Z,99.99
2023-02-14T09:46:49.914Z,99.99
2023-02-14T09:47:51.662Z,99.99
2023-02-14T09:48:49.914Z,99.99
2023-02-14T09:49:49.903Z,99.99
2023-02-14T09:50:49.826Z,99.99
2023-02-14T09:51:49.815Z,99.99
2023-02-14T09:52:49.814Z,99.15
2023-02-14T09:54:21.482Z,99.88
2023-02-14T09:54:49.777Z,98.11
2023-02-14T09:55:49.765Z,98.74
2023-02-14T09:56:51.564Z,98.74
2023-02-14T09:57:49.740Z,98.94
2023-02-14T09:58:49.746Z,99.99
2023-02-14T09:59:49.919Z,99.99
2023-02-14T10:00:49.767Z,99.15
2023-02-14T10:01:49.758Z,99.11
2023-02-14T10:02:49.672Z,99.99
2023-02-14T10:03:49.674Z,99.73
2023-02-14T10:04:49.655Z,98.38
2023-02-14T10:05:49.868Z,97.03
2023-02-14T10:06:49.614Z,97.03
2023-02-14T10:07:57.120Z,97.13
2023-02-14T10:08:58.260Z,97.03
2023-02-14T10:09:49.576Z,98.33
2023-02-14T10:10:56.642Z,99.06
2023-02-14T10:11:49.550Z,97.09
2023-02-14T10:12:49.539Z,93.76
2023-02-14T10:13:49.538Z,93.03
2023-02-14T10:14:49.509Z,94.34
2023-02-14T10:15:49.540Z,92.99
2023-02-14T10:16:49.571Z,94.45
2023-02-14T10:17:49.499Z,94.55
2023-02-14T10:18:49.449Z,95.90
2023-02-14T10:19:49.490Z,95.79
2023-02-14T10:20:49.443Z,96.17
2023-02-14T10:21:49.476Z,96.17
2023-02-14T10:22:49.571Z,93.16
2023-02-14T10:23:49.422Z,93.16
2023-02-14T10:24:49.379Z,92.38
2023-02-14T10:25:49.428Z,92.69
2023-02-14T10:26:49.376Z,91.45
2023-02-14T10:27:49.367Z,91.24
2023-02-14T10:28:49.405Z,90.52
2023-02-14T10:29:49.423Z,91.62
2023-02-14T10:30:49.385Z,90.58
2023-02-14T10:31:49.414Z,91.31
2023-02-14T10:32:49.296Z,89.65
2023-02-14T10:33:49.306Z,88.82
2023-02-14T10:34:49.364Z,87.05
2023-02-14T10:35:49.278Z,86.88
2023-02-14T10:36:49.234Z,87.26
2023-02-14T10:37:49.288Z,88.30
2023-02-14T10:38:49.246Z,89.40
2023-02-14T10:39:49.286Z,87.43
2023-02-14T10:40:49.501Z,86.39
2023-02-14T10:41:49.229Z,86.18
2023-02-14T10:42:49.148Z,86.18
2023-02-14T10:43:49.247Z,86.60
2023-02-14T10:44:49.142Z,86.25
2023-02-14T10:45:49.169Z,86.15
2023-02-14T10:46:49.162Z,85.00
2023-02-14T10:47:49.144Z,85.31
2023-02-14T10:48:49.097Z,85.63
2023-02-14T10:49:49.092Z,85.63
2023-02-14T10:50:49.140Z,84.80
2023-02-14T10:51:49.074Z,85.94
2023-02-14T10:52:49.084Z,85.17
2023-02-14T10:53:49.069Z,84.65
2023-02-14T10:54:49.081Z,84.13
2023-02-14T10:55:49.044Z,84.72
2023-02-14T10:56:49.009Z,84.72
2023-02-14T10:57:49.010Z,83.47
2023-02-14T10:58:49.023Z,83.26
2023-02-14T10:59:48.990Z,83.54
2023-02-14T11:00:48.958Z,84.68
2023-02-14T11:01:48.938Z,84.37
2023-02-14T11:02:48.911Z,83.50
2023-02-14T11:03:48.995Z,82.57
2023-02-14T11:04:48.928Z,81.84
2023-02-14T11:05:48.895Z,82.26
2023-02-14T11:06:48.887Z,83.19
2023-02-14T11:07:48.868Z,84.19
2023-02-14T11:08:48.829Z,81.19
2023-02-14T11:09:49.041Z,81.60
2023-02-14T11:10:48.819Z,81.70
2023-02-14T11:11:48.836Z,80.88
2023-02-14T11:12:48.779Z,80.88
2023-02-14T11:13:48.810Z,81.35
2023-02-14T11:14:56.108Z,81.87
2023-02-14T11:15:48.782Z,81.15
2023-02-14T11:16:51.481Z,81.56
2023-02-14T11:17:48.737Z,81.46
2023-02-14T11:18:48.731Z,80.74
2023-02-14T11:19:48.714Z,80.32
2023-02-14T11:20:48.884Z,80.84
2023-02-14T11:21:48.690Z,80.90
2023-02-14T11:22:48.656Z,81.52
2023-02-14T11:23:48.654Z,81.11
2023-02-14T11:24:48.624Z,79.15
2023-02-14T11:25:48.632Z,79.05
2023-02-14T11:26:48.675Z,79.22
2023-02-14T11:27:48.602Z,78.59
2023-02-14T11:28:48.732Z,78.80
2023-02-14T11:29:48.608Z,78.18
2023-02-14T11:30:48.691Z,78.18
2023-02-14T11:31:48.651Z,78.56
2023-02-14T11:32:48.756Z,78.35
2023-02-14T11:33:48.546Z,79.28
2023-02-14T11:34:48.497Z,77.63
2023-02-14T11:35:48.511Z,77.94
2023-02-14T11:36:48.476Z,78.05
2023-02-14T11:37:48.486Z,77.39
2023-02-14T11:38:48.497Z,78.11
2023-02-14T11:39:48.452Z,77.80
2023-02-14T11:40:48.428Z,78.63
2023-02-14T11:41:48.439Z,78.63
2023-02-14T11:42:51.607Z,78.63
2023-02-14T11:43:49.468Z,78.42
2023-02-14T11:44:48.368Z,79.04
2023-02-14T11:45:48.455Z,79.11
2023-02-14T11:46:53.428Z,79.52
2023-02-14T11:47:49.365Z,79.21
2023-02-14T11:48:48.336Z,79.27
2023-02-14T11:49:48.414Z,79.38
2023-02-14T11:50:48.294Z,79.48
2023-02-14T11:51:48.381Z,78.45
2023-02-14T11:52:48.274Z,77.80
2023-02-14T11:53:48.291Z,77.90
2023-02-14T11:54:48.236Z,78.93
2023-02-14T11:55:48.525Z,78.83
2023-02-14T11:56:48.219Z,79.14
2023-02-14T11:57:48.254Z,78.11
2023-02-14T11:58:48.224Z,77.76
2023-02-14T11:59:48.208Z,76.93
2023-02-14T12:00:48.164Z,77.86
2023-02-14T12:01:48.279Z,78.24
2023-02-14T12:02:48.191Z,76.79
2023-02-14T12:03:48.186Z,76.79
2023-02-14T12:04:48.102Z,76.28
2023-02-14T12:05:48.123Z,76.56
2023-02-14T12:06:48.119Z,76.35
2023-02-14T12:07:48.163Z,76.14
2023-02-14T12:08:48.130Z,75.52
2023-02-14T12:09:48.087Z,75.63
2023-02-14T12:10:48.042Z,74.80
2023-02-14T12:11:48.057Z,75.63
2023-02-14T12:12:48.023Z,77.45
2023-02-14T12:13:48.061Z,77.34
2023-02-14T12:14:48.009Z,76.21
2023-02-14T12:15:48.058Z,74.57
2023-02-14T12:16:48.027Z,75.39
2023-02-14T12:17:56.299Z,75.39
2023-02-14T12:18:48.171Z,74.77
2023-02-14T12:19:48.422Z,74.67
2023-02-14T12:20:47.910Z,75.15
2023-02-14T12:21:47.921Z,74.43
2023-02-14T12:22:47.906Z,74.43
2023-02-14T12:23:47.913Z,74.74
2023-02-14T12:24:47.861Z,73.91
2023-02-14T12:25:48.044Z,74.02
2023-02-14T12:26:47.841Z,74.50
2023-02-14T12:27:47.845Z,74.40
2023-02-14T12:28:47.866Z,74.40
2023-02-14T12:29:47.959Z,74.19
2023-02-14T12:30:47.847Z,74.77
2023-02-14T12:31:47.993Z,74.15
2023-02-14T12:32:47.773Z,73.54
2023-02-14T12:33:50.171Z,73.13
2023-02-14T12:34:47.790Z,74.05
2023-02-14T12:35:47.734Z,73.33
2023-02-14T12:36:47.768Z,73.02
2023-02-14T12:37:50.869Z,72.51
2023-02-14T12:38:48.806Z,72.72
2023-02-14T12:39:48.845Z,72.38
2023-02-14T12:40:47.681Z,72.38
2023-02-14T12:41:47.729Z,71.86
2023-02-14T12:42:47.897Z,71.66
2023-02-14T12:43:47.958Z,72.17
2023-02-14T12:44:47.694Z,71.45
2023-02-14T12:45:48.980Z,71.86
2023-02-14T12:46:47.730Z,72.03
2023-02-14T12:47:47.599Z,71.11
2023-02-14T12:48:47.621Z,71.62
2023-02-14T12:49:47.581Z,72.00
2023-02-14T12:50:47.537Z,71.69
2023-02-14T12:51:47.639Z,71.39
2023-02-14T12:52:47.513Z,70.97
2023-02-14T12:53:48.946Z,70.87
2023-02-14T12:54:47.489Z,71.90
2023-02-14T12:55:47.632Z,70.97
2023-02-14T12:56:47.508Z,70.46
2023-02-14T12:57:47.476Z,70.56
2023-02-14T12:58:47.444Z,70.53
2023-02-14T12:59:47.452Z,70.64
2023-02-14T13:00:47.440Z,70.09
2023-02-14T13:01:47.473Z,69.57
2023-02-14T13:02:47.466Z,69.47
2023-02-14T13:03:47.471Z,69.68
2023-02-14T13:04:47.545Z,69.37
2023-02-14T13:05:47.471Z,68.76
2023-02-14T13:06:47.339Z,68.55
2023-02-14T13:07:47.340Z,68.32
2023-02-14T13:08:47.364Z,69.24
2023-02-14T13:09:47.357Z,69.34
2023-02-14T13:10:47.277Z,69.44
2023-02-14T13:11:47.315Z,69.54
2023-02-14T13:12:47.260Z,69.03
2023-02-14T13:13:47.291Z,68.69
2023-02-14T13:14:47.296Z,68.28
2023-02-14T13:15:47.283Z,67.97
2023-02-14T13:16:47.358Z,67.36
2023-02-14T13:17:47.219Z,66.95
2023-02-14T13:18:47.193Z,67.26
2023-02-14T13:19:47.196Z,66.82
2023-02-14T13:20:47.225Z,67.23
2023-02-14T13:21:47.189Z,67.23
2023-02-14T13:22:47.200Z,66.41
2023-02-14T13:23:47.146Z,66.38
2023-02-14T13:24:47.108Z,66.10
2023-02-14T13:25:47.109Z,66.20
2023-02-14T13:26:47.131Z,66.10
2023-02-14T13:27:47.108Z,66.20
2023-02-14T13:28:47.060Z,65.56
2023-02-14T13:29:47.082Z,65.25
2023-02-14T13:30:47.068Z,65.87
2023-02-14T13:31:47.168Z,65.66
2023-02-14T13:32:47.051Z,65.12
2023-02-14T13:33:47.053Z,64.81
2023-02-14T13:34:47.006Z,65.02
2023-02-14T13:35:47.010Z,64.81
2023-02-14T13:36:46.964Z,64.81
2023-02-14T13:37:47.068Z,65.12
2023-02-14T13:38:46.955Z,64.81
2023-02-14T13:39:46.969Z,64.71
2023-02-14T13:40:46.896Z,64.92
2023-02-14T13:41:46.915Z,64.99
2023-02-14T13:42:46.950Z,65.09
2023-02-14T13:43:46.895Z,64.68
2023-02-14T13:44:46.855Z,64.45
2023-02-14T13:45:46.864Z,63.93
2023-02-14T13:46:46.911Z,62.61
2023-02-14T13:47:46.923Z,62.71
2023-02-14T13:48:46.806Z,62.51
2023-02-14T13:49:46.821Z,63.32
2023-02-14T13:50:46.783Z,62.61
2023-02-14T13:51:46.783Z,60.26
2023-02-14T13:52:46.756Z,59.98
2023-02-14T13:53:46.830Z,59.78
2023-02-14T13:54:46.731Z,61.00
2023-02-14T13:55:48.718Z,61.38
2023-02-14T13:56:46.706Z,60.36
2023-02-14T13:57:46.721Z,59.85
2023-02-14T13:58:46.680Z,60.05
2023-02-14T13:59:46.758Z,59.55
2023-02-14T14:00:46.817Z,60.05
2023-02-14T14:01:46.678Z,60.36
2023-02-14T14:02:46.637Z,59.85
2023-02-14T14:03:46.662Z,59.64
2023-02-14T14:04:46.605Z,59.85
2023-02-14T14:05:46.742Z,60.36
2023-02-14T14:06:46.704Z,59.75
2023-02-14T14:07:46.580Z,60.44
2023-02-14T14:08:46.537Z,60.44
2023-02-14T14:09:46.540Z,59.41
2023-02-14T14:10:46.565Z,59.62
2023-02-14T14:11:49.835Z,59.39
2023-02-14T14:12:46.506Z,59.39
2023-02-14T14:13:46.803Z,59.31
2023-02-14T14:14:46.477Z,59.41
2023-02-14T14:15:46.455Z,59.21
2023-02-14T14:16:46.511Z,59.62
2023-02-14T14:17:46.470Z,59.41
2023-02-14T14:18:46.424Z,59.82
2023-02-14T14:19:47.117Z,60.61
2023-02-14T14:20:46.395Z,60.10
2023-02-14T14:21:46.364Z,59.89
2023-02-14T14:22:46.392Z,59.97
2023-02-14T14:23:46.456Z,59.66
2023-02-14T14:24:46.346Z,60.48
2023-02-14T14:25:46.331Z,60.99
2023-02-14T14:26:46.326Z,60.48
2023-02-14T14:27:46.288Z,58.85
2023-02-14T14:28:46.315Z,59.26
2023-02-14T14:29:46.358Z,58.64
2023-02-14T14:30:46.349Z,59.05
2023-02-14T14:31:46.334Z,58.85
2023-02-14T14:32:46.280Z,58.64
2023-02-14T14:33:46.251Z,59.26
2023-02-14T14:34:46.240Z,59.49
2023-02-14T14:35:46.264Z,59.80
2023-02-14T14:36:46.202Z,58.78
2023-02-14T14:37:46.165Z,59.46
2023-02-14T14:38:46.193Z,58.54
2023-02-14T14:39:46.179Z,59.36
2023-02-14T14:40:46.162Z,59.66
2023-02-14T14:41:46.274Z,58.95
2023-02-14T14:42:46.112Z,58.54
2023-02-14T14:43:46.092Z,58.95
2023-02-14T14:44:46.087Z,59.36
2023-02-14T14:45:46.103Z,59.74
2023-02-14T14:46:46.069Z,59.74
2023-02-14T14:47:46.249Z,59.43
2023-02-14T14:48:46.045Z,59.43
2023-02-14T14:49:46.022Z,58.92
2023-02-14T14:50:46.032Z,58.62
2023-02-14T14:51:45.985Z,59.26
2023-02-14T14:52:45.993Z,59.36
2023-02-14T14:53:46.019Z,59.26
2023-02-14T14:54:45.989Z,59.36
2023-02-14T14:55:45.936Z,59.46
2023-02-14T14:56:45.947Z,59.77
2023-02-14T14:57:45.906Z,59.66
2023-02-14T14:58:46.028Z,59.36
2023-02-14T14:59:45.893Z,59.26
2023-02-14T15:00:45.913Z,59.26
2023-02-14T15:01:45.865Z,60.17
2023-02-14T15:02:45.874Z,59.77
2023-02-14T15:03:45.935Z,60.17
2023-02-14T15:04:45.909Z,60.38
2023-02-14T15:05:45.806Z,60.17
2023-02-14T15:06:45.828Z,59.97
2023-02-14T15:07:45.774Z,59.66
2023-02-14T15:08:49.930Z,59.66
2023-02-14T15:09:45.955Z,59.56
2023-02-14T15:10:45.764Z,59.80
2023-02-14T15:11:45.734Z,60.07
2023-02-14T15:12:45.775Z,59.77
2023-02-14T15:13:45.706Z,60.38
2023-02-14T15:14:45.775Z,60.38
2023-02-14T15:15:45.677Z,60.00
2023-02-14T15:16:45.736Z,59.97
2023-02-14T15:17:45.654Z,60.00
2023-02-14T15:18:45.659Z,59.69
2023-02-14T15:19:45.665Z,59.80
2023-02-14T15:20:45.624Z,59.89
2023-02-14T15:21:45.595Z,59.89
2023-02-14T15:22:45.627Z,60.30
2023-02-14T15:23:45.564Z,60.82
2023-02-14T15:24:45.621Z,60.71
2023-02-14T15:25:45.547Z,61.22
2023-02-14T15:26:45.576Z,60.92
2023-02-14T15:27:45.523Z,61.22
2023-02-14T15:28:45.534Z,61.43
2023-02-14T15:29:45.552Z,61.56
2023-02-14T15:30:45.539Z,62.17
2023-02-14T15:31:45.566Z,61.76
2023-02-14T15:32:45.477Z,62.48
2023-02-14T15:33:45.443Z,62.48
2023-02-14T15:34:45.475Z,62.68
2023-02-14T15:35:45.474Z,62.88
2023-02-14T15:36:45.499Z,63.49
2023-02-14T15:37:45.387Z,64.11
2023-02-14T15:38:45.402Z,64.45
2023-02-14T15:39:45.396Z,64.65
2023-02-14T15:40:45.364Z,65.06
2023-02-14T15:41:45.334Z,65.47
2023-02-14T15:42:45.342Z,65.57
2023-02-14T15:43:45.317Z,65.77
2023-02-14T15:44:45.363Z,65.80
2023-02-14T15:45:45.367Z,66.01
2023-02-14T15:46:45.311Z,66.21
2023-02-14T15:47:45.252Z,66.42
2023-02-14T15:48:45.273Z,66.55
2023-02-14T15:49:45.350Z,66.86
2023-02-14T15:50:45.241Z,66.86
2023-02-14T15:51:45.209Z,67.07
2023-02-14T15:52:45.213Z,67.27
2023-02-14T15:53:45.180Z,67.37
2023-02-14T15:54:45.184Z,67.57
2023-02-14T15:55:45.201Z,67.81
2023-02-14T15:56:45.170Z,68.01
2023-02-14T15:57:45.130Z,68.22
2023-02-14T15:58:45.147Z,68.32
2023-02-14T15:59:45.208Z,68.42
2023-02-14T16:00:45.115Z,68.73
2023-02-14T16:01:45.109Z,68.87
2023-02-14T16:02:45.143Z,69.07
2023-02-14T16:03:45.050Z,69.27
2023-02-14T16:04:45.111Z,69.48
2023-02-14T16:05:45.029Z,69.71
2023-02-14T16:06:45.042Z,69.92
2023-02-14T16:07:45.001Z,70.03
2023-02-14T16:08:45.006Z,70.23
2023-02-14T16:09:45.005Z,70.47
2023-02-14T16:10:44.973Z,70.77
2023-02-14T16:11:44.945Z,71.08
2023-02-14T16:12:44.956Z,71.32
2023-02-14T16:13:44.935Z,71.62
2023-02-14T16:14:45.136Z,71.83
2023-02-14T16:15:44.932Z,72.24
2023-02-14T16:16:44.914Z,72.48
2023-02-14T16:17:44.878Z,72.78
2023-02-14T16:18:44.936Z,72.89
2023-02-14T16:19:44.880Z,73.13
2023-02-14T16:20:44.954Z,73.44
2023-02-14T16:21:44.862Z,73.85
2023-02-14T16:22:44.831Z,74.08
2023-02-14T16:23:44.830Z,74.40
2023-02-14T16:24:44.813Z,74.49
2023-02-14T16:25:44.815Z,74.80
2023-02-14T16:26:44.793Z,75.04
2023-02-14T16:27:44.738Z,75.56
2023-02-14T16:28:44.757Z,75.66
2023-02-14T16:29:44.716Z,76.00
2023-02-14T16:30:44.816Z,76.21
2023-02-14T16:32:06.252Z,76.51
2023-02-14T16:32:46.003Z,76.51
2023-02-14T16:33:44.675Z,77.06
2023-02-14T16:34:44.670Z,77.17
2023-02-14T16:35:44.717Z,77.27
2023-02-14T16:36:44.643Z,77.27
2023-02-14T16:37:44.733Z,77.62
2023-02-14T16:38:44.700Z,78.13
2023-02-14T16:39:44.603Z,78.33
2023-02-14T16:40:44.696Z,78.44
2023-02-14T16:41:44.616Z,78.68
2023-02-14T16:42:44.629Z,79.09
2023-02-14T16:43:44.556Z,79.64
2023-02-14T16:44:44.622Z,79.95
2023-02-14T16:45:44.559Z,80.26
2023-02-14T16:46:44.520Z,80.30
2023-02-14T16:47:44.495Z,80.61
2023-02-14T16:48:44.496Z,81.23
2023-02-14T16:49:44.479Z,82.19
2023-02-14T16:50:44.524Z,82.40
2023-02-14T16:51:44.493Z,82.50
2023-02-14T16:52:44.452Z,82.95
2023-02-14T16:53:44.414Z,83.36
2023-02-14T16:54:44.432Z,84.08
2023-02-14T16:55:44.423Z,84.08
2023-02-14T16:56:44.396Z,84.22
2023-02-14T16:57:44.402Z,84.53
2023-02-14T16:58:44.363Z,84.94
2023-02-14T16:59:44.514Z,85.15
2023-02-14T17:00:44.374Z,85.36
2023-02-14T17:01:44.353Z,85.60
2023-02-14T17:02:44.511Z,85.60
2023-02-14T17:03:44.449Z,85.60
2023-02-14T17:04:44.329Z,86.74
2023-02-14T17:05:44.694Z,87.05
2023-02-14T17:06:44.297Z,87.08
2023-02-14T17:07:44.248Z,86.98
2023-02-14T17:08:44.240Z,87.71
2023-02-14T17:09:44.310Z,87.81
2023-02-14T17:10:44.219Z,88.22
2023-02-14T17:11:44.385Z,87.60
2023-02-14T17:12:44.218Z,87.34
2023-02-14T17:13:44.151Z,87.54
2023-02-14T17:14:51.204Z,88.78
2023-02-14T17:15:44.884Z,89.23
2023-02-14T17:16:44.128Z,89.44
2023-02-14T17:17:44.168Z,89.86
2023-02-14T17:18:44.127Z,90.26
2023-02-14T17:19:44.108Z,90.93
2023-02-14T17:20:44.122Z,91.24
2023-02-14T17:21:44.098Z,91.34
2023-02-14T17:22:44.157Z,92.27
2023-02-14T17:23:44.280Z,93.45
2023-02-14T17:24:44.047Z,93.24
2023-02-14T17:25:44.002Z,93.97
2023-02-14T17:26:44.045Z,93.04
2023-02-14T17:27:43.994Z,93.14
2023-02-14T17:28:44.012Z,93.35
2023-02-14T17:29:44.124Z,93.97
2023-02-14T17:30:43.993Z,94.07
2023-02-14T17:31:44.163Z,94.18
2023-02-14T17:32:43.958Z,94.48
2023-02-14T17:33:43.914Z,95.21
2023-02-14T17:34:43.961Z,95.42
2023-02-14T17:35:43.958Z,94.38
2023-02-14T17:36:43.893Z,94.01
2023-02-14T17:37:43.856Z,94.32
2023-02-14T17:38:50.875Z,94.73
2023-02-14T17:39:50.865Z,95.04
2023-02-14T17:40:50.934Z,95.09
2023-02-14T17:41:50.833Z,96.23
2023-02-14T17:42:50.846Z,96.23
2023-02-14T17:43:51.280Z,95.71
2023-02-14T17:44:43.781Z,96.23
2023-02-14T17:45:43.751Z,96.64
2023-02-14T17:46:45.809Z,97.10
2023-02-14T17:47:43.729Z,97.62
2023-02-14T17:48:43.740Z,98.09
2023-02-14T17:49:43.704Z,98.30
2023-02-14T17:50:43.717Z,97.84
2023-02-14T17:51:43.686Z,96.80
2023-02-14T17:52:43.780Z,96.29
2023-02-14T17:53:43.658Z,97.01